Shepardsville, Indiana
Current Conditions -  °F | °C
As of 11:53 AM on Saturday 25 Oct 2014 (Local Time) from KHUF Reporting Station
Clear Clear  
Wind Chill: 65°   Ceiling: Unl
Heat Index: 65°   Visibility: 10mi
Dew Point: 56°   Wind: 5mph
Humidity: 73%   Direction: NA
Pressure: 30"   Gusts: NA
Location:  39.6°N, 87.42°W
Report Text: KHUF 251553Z VRB04KT 10SM CLR 18/13 A3000 RMK AO2 SLP157 T01830133
Loading
Personal Weather Stations






























Interactive Weather Map New forecast layout! Learn more

10-Day Weather Forecast

Advertisements
Track Severe Weather on mobile